Аэропорт: Уйташ. Махачкала

ICAO: URML

METAR:
2021-04-21 20:30:00
URML 212030Z 26004MPS 9999 NSC 14/09 Q1020 R32/01//70 NOSIG RMK QFE764/1019
METAR:
2021-04-21 20:00:00
TAF URML 212000Z 2121/2206 30003G09MPS 6000 -SHRA BKN020 SCT040CB PROB40 TEMPO 2121/2124 VRB07G15MPS -TSRA BKN016 SCT033CB